createdAt,value
2019-05-29T00:01:14.071Z,10.20
2019-05-29T00:03:38.566Z,10.20
2019-05-29T00:06:08.059Z,10.20
2019-05-29T00:08:36.551Z,10.20
2019-05-29T00:11:05.969Z,10.20
2019-05-29T00:13:34.363Z,10.20
2019-05-29T00:16:02.595Z,10.20
2019-05-29T00:18:30.820Z,10.20
2019-05-29T00:20:59.037Z,10.20
2019-05-29T00:23:27.263Z,10.20
2019-05-29T00:25:55.560Z,10.20
2019-05-29T00:28:23.832Z,10.20
2019-05-29T00:30:52.059Z,10.20
2019-05-29T00:33:20.271Z,10.20
2019-05-29T00:35:48.476Z,10.20
2019-05-29T00:38:16.732Z,10.20
2019-05-29T00:40:44.927Z,10.20
2019-05-29T00:43:13.268Z,10.20
2019-05-29T00:45:41.525Z,10.20
2019-05-29T00:48:09.735Z,10.10
2019-05-29T00:50:37.964Z,10.20
2019-05-29T00:53:06.172Z,10.10
2019-05-29T00:55:34.386Z,10.10
2019-05-29T00:58:02.601Z,10.10
2019-05-29T01:00:30.807Z,10.10
2019-05-29T01:02:59.047Z,10.10
2019-05-29T01:05:27.273Z,10.10
2019-05-29T01:07:55.544Z,10.20
2019-05-29T01:10:23.768Z,10.20
2019-05-29T01:12:55.186Z,10.20
2019-05-29T01:15:23.490Z,10.20
2019-05-29T01:17:51.834Z,10.20
2019-05-29T01:20:20.084Z,10.10
2019-05-29T01:22:48.269Z,10.10
2019-05-29T01:25:16.583Z,10.10
2019-05-29T01:27:44.784Z,10.10
2019-05-29T01:30:13.226Z,10.00
2019-05-29T01:32:41.593Z,10.00
2019-05-29T01:35:09.879Z,10.00
2019-05-29T01:37:38.084Z,9.90
2019-05-29T01:40:19.419Z,9.90
2019-05-29T01:42:36.377Z,9.90
2019-05-29T01:45:08.256Z,9.80
2019-05-29T01:47:36.241Z,9.80
2019-05-29T01:50:05.681Z,9.80
2019-05-29T01:52:33.893Z,9.80
2019-05-29T01:55:02.101Z,9.70
2019-05-29T01:57:30.333Z,9.70
2019-05-29T01:59:58.535Z,9.70
2019-05-29T02:02:28.141Z,9.70
2019-05-29T02:04:56.443Z,9.60
2019-05-29T02:07:24.947Z,9.60
2019-05-29T02:09:53.159Z,9.50
2019-05-29T02:12:22.326Z,9.50
2019-05-29T02:14:50.748Z,9.40
2019-05-29T02:17:19.715Z,9.30
2019-05-29T02:19:48.043Z,9.30
2019-05-29T02:22:16.965Z,9.20
2019-05-29T02:24:45.247Z,9.20
2019-05-29T02:27:13.439Z,9.20
2019-05-29T02:29:41.656Z,9.20
2019-05-29T02:32:09.871Z,9.20
2019-05-29T02:34:38.094Z,9.20
2019-05-29T02:37:06.333Z,9.10
2019-05-29T02:39:34.570Z,9.10
2019-05-29T02:42:02.791Z,9.00
2019-05-29T02:44:31.069Z,9.00
2019-05-29T02:46:59.285Z,9.00
2019-05-29T02:49:28.092Z,8.90
2019-05-29T02:51:56.493Z,8.90
2019-05-29T02:54:25.388Z,8.90
2019-05-29T02:56:54.644Z,8.90
2019-05-29T02:59:23.439Z,8.80
2019-05-29T03:01:52.247Z,8.70
2019-05-29T03:04:21.703Z,8.70
2019-05-29T03:06:50.058Z,8.70
2019-05-29T03:09:18.295Z,8.60
2019-05-29T03:11:46.481Z,8.50
2019-05-29T03:14:14.692Z,8.40
2019-05-29T03:16:42.913Z,8.40
2019-05-29T03:19:11.121Z,8.30
2019-05-29T03:21:39.332Z,8.30
2019-05-29T03:24:07.542Z,8.20
2019-05-29T03:26:35.765Z,8.20
2019-05-29T03:29:03.985Z,8.20
2019-05-29T03:31:41.933Z,8.20
2019-05-29T03:34:02.283Z,8.20
2019-05-29T03:36:35.785Z,8.20
2019-05-29T03:39:00.693Z,8.20
2019-05-29T03:41:30.200Z,8.20
2019-05-29T03:43:58.489Z,8.20
2019-05-29T03:46:35.468Z,8.10
2019-05-29T03:48:56.658Z,8.10
2019-05-29T03:51:24.935Z,8.10
2019-05-29T03:53:53.135Z,8.00
2019-05-29T03:56:21.345Z,8.00
2019-05-29T03:58:49.563Z,7.90
2019-05-29T04:01:17.786Z,7.90
2019-05-29T04:03:45.996Z,7.90
2019-05-29T04:06:14.212Z,7.80
2019-05-29T04:08:42.421Z,7.80
2019-05-29T04:11:10.640Z,7.70
2019-05-29T04:13:39.253Z,7.70
2019-05-29T04:16:07.663Z,7.70
2019-05-29T04:18:36.051Z,7.70
2019-05-29T04:21:04.764Z,7.70
2019-05-29T04:23:36.297Z,7.70
2019-05-29T04:26:04.666Z,7.70
2019-05-29T04:28:34.766Z,7.80
2019-05-29T04:31:02.892Z,7.80
2019-05-29T04:33:32.486Z,7.80
2019-05-29T04:36:00.914Z,7.80
2019-05-29T04:38:30.895Z,7.90
2019-05-29T04:40:59.053Z,7.90
2019-05-29T04:43:28.623Z,7.90
2019-05-29T04:45:57.109Z,7.90
2019-05-29T04:48:25.357Z,8.00
2019-05-29T04:50:53.637Z,8.00
2019-05-29T04:53:21.848Z,8.00
2019-05-29T04:55:50.052Z,8.00
2019-05-29T04:58:18.265Z,8.10
2019-05-29T05:00:58.508Z,8.10
2019-05-29T05:03:16.415Z,8.10
2019-05-29T05:05:44.620Z,8.20
2019-05-29T05:08:12.832Z,8.30
2019-05-29T05:10:41.450Z,8.30
2019-05-29T05:13:09.627Z,8.40
2019-05-29T05:15:38.103Z,8.40
2019-05-29T05:18:06.464Z,8.50
2019-05-29T05:20:36.005Z,8.60
2019-05-29T05:23:04.931Z,8.60
2019-05-29T05:25:34.141Z,8.70
2019-05-29T05:28:02.579Z,8.80
2019-05-29T05:30:30.767Z,8.90
2019-05-29T05:32:58.998Z,9.00
2019-05-29T05:35:27.283Z,9.20
2019-05-29T05:37:55.527Z,9.20
2019-05-29T05:40:23.737Z,9.30
2019-05-29T05:42:51.953Z,9.40
2019-05-29T05:45:20.217Z,9.60
2019-05-29T05:47:57.028Z,9.70
2019-05-29T05:50:18.373Z,9.80
2019-05-29T05:52:46.609Z,9.90
2019-05-29T05:55:14.819Z,10.10
2019-05-29T05:57:43.035Z,10.30
2019-05-29T06:00:11.442Z,10.40
2019-05-29T06:02:40.147Z,10.60
2019-05-29T06:05:08.552Z,10.70
2019-05-29T06:07:37.850Z,10.90
2019-05-29T06:10:06.863Z,11.10
2019-05-29T06:12:36.406Z,11.20
2019-05-29T06:15:06.444Z,11.40
2019-05-29T06:17:34.688Z,11.40
2019-05-29T06:20:04.944Z,11.50
2019-05-29T06:22:33.211Z,11.80
2019-05-29T06:25:01.459Z,11.90
2019-05-29T06:27:29.751Z,12.40
2019-05-29T06:29:57.993Z,12.60
2019-05-29T06:32:26.199Z,12.70
2019-05-29T06:34:54.490Z,12.80
2019-05-29T06:37:22.795Z,13.20
2019-05-29T06:39:51.043Z,13.70
2019-05-29T06:42:19.349Z,14.20
2019-05-29T06:44:49.519Z,14.80
2019-05-29T06:47:17.633Z,15.70
2019-05-29T06:49:46.312Z,15.80
2019-05-29T06:52:14.651Z,15.60
2019-05-29T06:54:44.097Z,16.20
2019-05-29T06:57:12.600Z,16.50
2019-05-29T06:59:42.292Z,17.40
2019-05-29T07:02:10.756Z,17.70
2019-05-29T07:04:38.957Z,17.70
2019-05-29T07:07:07.172Z,18.90
2019-05-29T07:09:35.375Z,18.10
2019-05-29T07:12:03.654Z,18.60
2019-05-29T07:14:31.881Z,20.00
2019-05-29T07:17:00.095Z,19.90
2019-05-29T07:19:47.051Z,21.00
2019-05-29T07:21:58.243Z,21.60
2019-05-29T07:24:26.467Z,20.20
2019-05-29T07:26:54.692Z,18.70
2019-05-29T07:29:22.959Z,17.90
2019-05-29T07:31:51.270Z,17.50
2019-05-29T07:34:19.516Z,16.70
2019-05-29T07:36:48.195Z,16.20
2019-05-29T07:39:16.642Z,16.10
2019-05-29T07:41:45.763Z,15.70
2019-05-29T07:44:14.132Z,15.90
2019-05-29T07:46:42.384Z,17.00
2019-05-29T07:49:10.592Z,18.70
2019-05-29T07:51:40.417Z,20.90
2019-05-29T07:54:08.914Z,22.60
2019-05-29T07:56:38.260Z,23.90
2019-05-29T07:59:06.603Z,23.90
2019-05-29T08:01:34.813Z,23.90
2019-05-29T08:04:03.042Z,24.20
2019-05-29T08:06:31.239Z,23.80
2019-05-29T08:08:59.448Z,23.00
2019-05-29T08:11:27.660Z,23.30
2019-05-29T08:13:55.855Z,24.20
2019-05-29T08:16:24.065Z,24.00
2019-05-29T08:18:53.104Z,23.70
2019-05-29T08:21:21.705Z,23.70
2019-05-29T08:23:50.771Z,24.10
2019-05-29T08:26:19.180Z,24.30
2019-05-29T08:28:48.789Z,25.40
2019-05-29T08:31:17.187Z,25.30
2019-05-29T08:33:45.384Z,25.60
2019-05-29T08:36:13.620Z,26.00
2019-05-29T08:38:42.951Z,26.00
2019-05-29T08:41:11.780Z,25.70
2019-05-29T08:43:39.988Z,25.70
2019-05-29T08:46:08.200Z,25.70
2019-05-29T08:48:36.419Z,25.90
2019-05-29T08:51:04.620Z,26.10
2019-05-29T08:53:32.847Z,26.30
2019-05-29T08:56:01.049Z,26.30
2019-05-29T08:58:29.268Z,26.20
2019-05-29T09:00:57.471Z,26.70
2019-05-29T09:03:25.677Z,26.80
2019-05-29T09:06:06.899Z,27.10
2019-05-29T09:08:23.832Z,26.60
2019-05-29T09:10:53.488Z,26.70
2019-05-29T09:13:21.995Z,27.00
2019-05-29T09:15:50.279Z,27.30
2019-05-29T09:18:19.764Z,27.30
2019-05-29T09:21:01.779Z,27.70
2019-05-29T09:23:18.771Z,27.40
2019-05-29T09:25:47.121Z,27.30
2019-05-29T09:28:16.615Z,27.00
2019-05-29T09:30:45.144Z,26.70
2019-05-29T09:33:15.315Z,25.10
2019-05-29T09:35:43.310Z,23.50
2019-05-29T09:38:11.507Z,22.50
2019-05-29T09:40:39.723Z,22.20
2019-05-29T09:43:07.952Z,23.30
2019-05-29T09:45:36.157Z,24.80
2019-05-29T09:48:04.484Z,26.10
2019-05-29T09:50:48.932Z,26.00
2019-05-29T09:53:04.071Z,26.20
2019-05-29T09:55:32.584Z,26.20
2019-05-29T09:58:00.839Z,25.00
2019-05-29T10:00:29.123Z,25.80
2019-05-29T10:02:57.358Z,26.60
2019-05-29T10:05:25.560Z,26.70
2019-05-29T10:07:55.120Z,25.00
2019-05-29T10:10:23.712Z,23.90
2019-05-29T10:12:51.925Z,23.00
2019-05-29T10:15:20.131Z,21.40
2019-05-29T10:17:48.351Z,20.60
2019-05-29T10:20:16.623Z,20.00
2019-05-29T10:22:44.836Z,20.10
2019-05-29T10:25:13.045Z,21.40
2019-05-29T10:27:41.263Z,23.30
2019-05-29T10:30:09.770Z,25.50
2019-05-29T10:32:37.982Z,26.40
2019-05-29T10:35:06.248Z,24.90
2019-05-29T10:37:34.466Z,22.80
2019-05-29T10:40:03.645Z,21.90
2019-05-29T10:42:31.845Z,21.50
2019-05-29T10:45:00.063Z,22.60
2019-05-29T10:47:28.263Z,23.50
2019-05-29T10:49:56.483Z,24.60
2019-05-29T10:52:24.684Z,26.00
2019-05-29T10:54:52.904Z,27.30
2019-05-29T10:57:21.126Z,28.50
2019-05-29T10:59:49.344Z,29.50
2019-05-29T11:02:17.549Z,29.80
2019-05-29T11:04:49.454Z,30.10
2019-05-29T11:07:15.048Z,28.60
2019-05-29T11:09:45.051Z,28.70
2019-05-29T11:12:13.221Z,28.80
2019-05-29T11:14:41.431Z,29.00
2019-05-29T11:17:09.639Z,29.30
2019-05-29T11:19:37.857Z,29.40
2019-05-29T11:22:25.104Z,29.60
2019-05-29T11:24:35.360Z,30.10
2019-05-29T11:27:03.571Z,29.40
2019-05-29T11:29:31.790Z,29.70
2019-05-29T11:32:00.020Z,29.90
2019-05-29T11:34:28.249Z,29.40
2019-05-29T11:36:56.489Z,29.40
2019-05-29T11:39:24.703Z,28.50
2019-05-29T11:41:52.905Z,26.20
2019-05-29T11:44:21.129Z,25.00
2019-05-29T11:46:50.154Z,24.00
2019-05-29T11:49:18.535Z,23.10
2019-05-29T11:51:46.736Z,23.40
2019-05-29T11:54:14.976Z,23.60
2019-05-29T11:56:43.189Z,24.10
2019-05-29T11:59:11.401Z,24.70
2019-05-29T12:01:49.784Z,25.30
2019-05-29T12:04:24.367Z,25.80
2019-05-29T12:06:39.479Z,25.40
2019-05-29T12:09:09.659Z,25.90
2019-05-29T12:11:37.342Z,25.90
2019-05-29T12:14:05.548Z,25.40
2019-05-29T12:16:33.782Z,24.70
2019-05-29T12:19:02.041Z,23.80
2019-05-29T12:21:30.321Z,23.50
2019-05-29T12:23:58.549Z,23.60
2019-05-29T12:26:26.769Z,23.90
2019-05-29T12:29:03.715Z,24.60
2019-05-29T12:31:24.972Z,25.30
2019-05-29T12:33:53.186Z,25.90
2019-05-29T12:36:21.431Z,26.10
2019-05-29T12:38:49.621Z,26.00
2019-05-29T12:41:17.824Z,26.10
2019-05-29T12:43:46.051Z,25.80
2019-05-29T12:46:14.260Z,24.90
2019-05-29T12:48:42.489Z,24.30
2019-05-29T12:51:10.680Z,23.50
2019-05-29T12:53:38.896Z,22.90
2019-05-29T12:56:07.116Z,22.80
2019-05-29T12:58:35.324Z,23.20
2019-05-29T13:01:05.134Z,23.80
2019-05-29T13:03:34.367Z,24.20
2019-05-29T13:06:02.581Z,24.30
2019-05-29T13:08:30.796Z,24.60
2019-05-29T13:10:59.004Z,24.90
2019-05-29T13:13:27.205Z,25.10
2019-05-29T13:15:56.614Z,24.80
2019-05-29T13:18:25.027Z,24.40
2019-05-29T13:20:53.220Z,24.70
2019-05-29T13:23:21.424Z,25.10
2019-05-29T13:25:49.637Z,25.20
2019-05-29T13:28:17.836Z,25.80
2019-05-29T13:30:46.047Z,25.60
2019-05-29T13:33:14.252Z,24.60
2019-05-29T13:35:42.473Z,24.40
2019-05-29T13:38:10.692Z,24.20
2019-05-29T13:40:38.886Z,24.40
2019-05-29T13:43:15.223Z,25.00
2019-05-29T13:45:37.111Z,25.70
2019-05-29T13:48:05.565Z,26.10
2019-05-29T13:50:33.833Z,26.20
2019-05-29T13:53:03.377Z,26.50
2019-05-29T13:55:31.833Z,26.00
2019-05-29T13:58:00.059Z,26.10
2019-05-29T14:00:34.015Z,25.70
2019-05-29T14:02:58.440Z,25.30
2019-05-29T14:05:26.804Z,24.70
2019-05-29T14:07:55.016Z,24.40
2019-05-29T14:10:23.245Z,24.10
2019-05-29T14:12:51.448Z,23.40
2019-05-29T14:15:19.659Z,22.40
2019-05-29T14:17:47.879Z,22.10
2019-05-29T14:20:16.460Z,21.90
2019-05-29T14:22:44.667Z,21.80
2019-05-29T14:25:12.882Z,21.70
2019-05-29T14:27:41.085Z,21.90
2019-05-29T14:30:10.928Z,22.80
2019-05-29T14:32:38.791Z,23.60
2019-05-29T14:35:08.708Z,24.40
2019-05-29T14:37:36.992Z,25.30
2019-05-29T14:40:05.715Z,25.80
2019-05-29T14:42:34.001Z,26.40
2019-05-29T14:45:02.426Z,26.60
2019-05-29T14:47:31.923Z,26.70
2019-05-29T14:50:00.140Z,26.90
2019-05-29T14:52:28.326Z,27.00
2019-05-29T14:54:56.531Z,27.30
2019-05-29T14:57:26.374Z,27.50
2019-05-29T14:59:54.081Z,27.40
2019-05-29T15:02:24.061Z,26.70
2019-05-29T15:04:52.375Z,27.20
2019-05-29T15:07:22.828Z,27.10
2019-05-29T15:09:50.543Z,26.70
2019-05-29T15:12:18.736Z,26.40
2019-05-29T15:14:46.961Z,25.90
2019-05-29T15:17:15.524Z,25.30
2019-05-29T15:19:43.995Z,24.90
2019-05-29T15:22:13.957Z,25.20
2019-05-29T15:24:59.722Z,25.40
2019-05-29T15:27:12.097Z,25.60
2019-05-29T15:29:40.354Z,25.90
2019-05-29T15:32:08.556Z,25.60
2019-05-29T15:34:36.771Z,25.20
2019-05-29T15:37:04.977Z,24.40
2019-05-29T15:39:33.255Z,23.70
2019-05-29T15:42:01.484Z,22.90
2019-05-29T15:44:29.688Z,22.20
2019-05-29T15:46:57.888Z,21.70
2019-05-29T15:49:26.103Z,21.20
2019-05-29T15:51:54.406Z,20.80
2019-05-29T15:54:22.614Z,20.50
2019-05-29T15:56:50.835Z,20.20
2019-05-29T15:59:19.225Z,20.00
2019-05-29T16:01:47.562Z,20.30
2019-05-29T16:04:15.867Z,20.60
2019-05-29T16:06:44.048Z,21.30
2019-05-29T16:09:12.260Z,22.00
2019-05-29T16:11:40.490Z,22.70
2019-05-29T16:14:10.525Z,23.40
2019-05-29T16:16:38.978Z,23.80
2019-05-29T16:19:07.192Z,24.10
2019-05-29T16:21:35.399Z,24.20
2019-05-29T16:24:03.615Z,24.20
2019-05-29T16:26:31.835Z,24.30
2019-05-29T16:29:00.055Z,24.30
2019-05-29T16:31:28.264Z,24.30
2019-05-29T16:33:56.475Z,24.20
2019-05-29T16:36:24.708Z,23.80
2019-05-29T16:38:52.917Z,23.10
2019-05-29T16:41:21.999Z,22.70
2019-05-29T16:43:50.355Z,22.60
2019-05-29T16:46:20.708Z,22.20
2019-05-29T16:48:48.505Z,21.90
2019-05-29T16:51:16.742Z,21.50
2019-05-29T16:53:45.047Z,21.00
2019-05-29T16:56:13.297Z,20.70
2019-05-29T16:58:41.517Z,20.50
2019-05-29T17:01:09.743Z,20.20
2019-05-29T17:03:37.944Z,19.90
2019-05-29T17:06:06.171Z,19.70
2019-05-29T17:08:34.380Z,19.40
2019-05-29T17:11:05.048Z,19.20
2019-05-29T17:13:32.543Z,19.10
2019-05-29T17:16:00.774Z,19.00
2019-05-29T17:18:28.980Z,18.80
2019-05-29T17:20:57.199Z,18.70
2019-05-29T17:23:25.426Z,18.60
2019-05-29T17:26:09.223Z,18.40
2019-05-29T17:28:27.665Z,18.30
2019-05-29T17:30:53.494Z,18.10
2019-05-29T17:33:23.023Z,18.00
2019-05-29T17:35:51.386Z,17.80
2019-05-29T17:38:19.605Z,17.60
2019-05-29T17:40:47.804Z,17.50
2019-05-29T17:43:20.262Z,17.40
2019-05-29T17:45:45.941Z,17.30
2019-05-29T17:48:15.348Z,17.20
2019-05-29T17:50:43.845Z,17.20
2019-05-29T17:53:12.048Z,17.00
2019-05-29T17:55:40.272Z,17.00
2019-05-29T17:58:08.474Z,16.90
2019-05-29T18:00:36.790Z,16.90
2019-05-29T18:03:05.666Z,16.90
2019-05-29T18:05:36.797Z,16.80
2019-05-29T18:08:03.793Z,16.70
2019-05-29T18:10:32.021Z,16.70
2019-05-29T18:13:00.220Z,16.60
2019-05-29T18:15:28.424Z,16.60
2019-05-29T18:17:56.633Z,16.50
2019-05-29T18:20:25.872Z,16.50
2019-05-29T18:22:54.224Z,16.50
2019-05-29T18:25:22.424Z,16.40
2019-05-29T18:27:50.653Z,16.30
2019-05-29T18:30:19.950Z,16.30
2019-05-29T18:32:48.444Z,16.20
2019-05-29T18:35:16.670Z,16.20
2019-05-29T18:37:44.868Z,16.20
2019-05-29T18:40:13.092Z,16.20
2019-05-29T18:42:41.309Z,16.10
2019-05-29T18:45:20.544Z,16.00
2019-05-29T18:47:39.632Z,15.90
2019-05-29T18:50:08.223Z,15.80
2019-05-29T18:52:36.431Z,15.60
2019-05-29T18:55:07.756Z,15.50
2019-05-29T18:57:35.961Z,15.40
2019-05-29T19:00:09.239Z,15.20
2019-05-29T19:02:37.444Z,15.00
2019-05-29T19:05:06.303Z,14.80
2019-05-29T19:07:34.563Z,14.60
2019-05-29T19:10:06.223Z,14.40
2019-05-29T19:12:32.716Z,14.20
2019-05-29T19:15:00.985Z,14.00
2019-05-29T19:17:30.068Z,13.90
2019-05-29T19:19:58.408Z,13.80
2019-05-29T19:22:26.611Z,13.60
2019-05-29T19:24:54.829Z,13.50
2019-05-29T19:27:35.112Z,13.40
2019-05-29T19:29:52.977Z,13.30
2019-05-29T19:32:21.233Z,13.20
2019-05-29T19:34:49.472Z,13.10
2019-05-29T19:37:17.667Z,13.00
2019-05-29T19:39:45.899Z,12.90
2019-05-29T19:42:14.104Z,12.80
2019-05-29T19:44:42.307Z,12.70
2019-05-29T19:47:10.531Z,12.70
2019-05-29T19:49:38.746Z,12.60
2019-05-29T19:52:06.941Z,12.40
2019-05-29T19:54:35.741Z,12.40
2019-05-29T19:57:04.166Z,12.20
2019-05-29T19:59:32.367Z,12.10
2019-05-29T20:02:00.588Z,12.00
2019-05-29T20:04:28.808Z,11.90
2019-05-29T20:06:57.025Z,11.80
2019-05-29T20:09:25.224Z,11.70
2019-05-29T20:11:53.435Z,11.50
2019-05-29T20:14:21.654Z,11.40
2019-05-29T20:16:49.876Z,11.30
2019-05-29T20:19:18.084Z,11.20
2019-05-29T20:21:46.290Z,11.20
2019-05-29T20:24:14.496Z,11.20
2019-05-29T20:26:42.703Z,11.20
2019-05-29T20:29:10.916Z,11.10
2019-05-29T20:31:39.125Z,11.00
2019-05-29T20:34:07.348Z,10.90
2019-05-29T20:36:37.267Z,10.80
2019-05-29T20:39:07.228Z,10.80
2019-05-29T20:41:38.571Z,10.80
2019-05-29T20:44:05.376Z,10.90
2019-05-29T20:46:34.922Z,11.00
2019-05-29T20:49:03.267Z,11.00
2019-05-29T20:51:32.745Z,10.90
2019-05-29T20:54:01.423Z,10.80
2019-05-29T20:56:29.625Z,10.70
2019-05-29T20:58:57.845Z,10.60
2019-05-29T21:01:26.052Z,10.70
2019-05-29T21:03:54.259Z,10.70
2019-05-29T21:07:15.848Z,10.60
2019-05-29T21:09:43.400Z,10.60
2019-05-29T21:12:11.886Z,10.40
2019-05-29T21:14:40.096Z,10.40
2019-05-29T21:17:08.326Z,10.30
2019-05-29T21:19:36.609Z,10.20
2019-05-29T21:22:04.828Z,10.20
2019-05-29T21:24:34.439Z,10.20
2019-05-29T21:27:02.936Z,10.20
2019-05-29T21:29:31.277Z,10.20
2019-05-29T21:31:59.568Z,10.20
2019-05-29T21:34:27.779Z,10.20
2019-05-29T21:36:56.001Z,10.30
2019-05-29T21:39:24.233Z,10.40
2019-05-29T21:41:52.448Z,10.50
2019-05-29T21:44:20.666Z,10.50
2019-05-29T21:46:48.953Z,10.50
2019-05-29T21:49:17.148Z,10.60
2019-05-29T21:51:45.791Z,10.70
2019-05-29T21:54:14.171Z,10.80
2019-05-29T21:56:43.474Z,10.80
2019-05-29T21:59:11.972Z,10.80
2019-05-29T22:01:40.183Z,10.80
2019-05-29T22:04:08.464Z,10.80
2019-05-29T22:06:36.692Z,10.70
2019-05-29T22:09:08.151Z,10.60
2019-05-29T22:11:36.356Z,10.50
2019-05-29T22:14:04.581Z,10.50
2019-05-29T22:16:32.784Z,10.40
2019-05-29T22:19:04.133Z,10.40
2019-05-29T22:21:31.211Z,10.30
2019-05-29T22:23:59.441Z,10.30
2019-05-29T22:26:27.637Z,10.30
2019-05-29T22:28:55.843Z,10.30
2019-05-29T22:31:24.069Z,10.30
2019-05-29T22:33:53.418Z,10.40
2019-05-29T22:36:21.762Z,10.40
2019-05-29T22:38:51.295Z,10.40
2019-05-29T22:41:19.752Z,10.50
2019-05-29T22:43:47.951Z,10.50
2019-05-29T22:46:16.185Z,10.40
2019-05-29T22:48:44.399Z,10.40
2019-05-29T22:51:12.596Z,10.30
2019-05-29T22:53:40.819Z,10.30
2019-05-29T22:56:09.024Z,10.30
2019-05-29T22:58:37.346Z,10.40
2019-05-29T23:01:05.528Z,10.30
2019-05-29T23:03:33.752Z,10.30
2019-05-29T23:06:02.476Z,10.20
2019-05-29T23:08:30.861Z,10.10
2019-05-29T23:11:00.309Z,10.10
2019-05-29T23:13:28.648Z,10.00
2019-05-29T23:15:58.643Z,10.00
2019-05-29T23:18:27.020Z,9.90
2019-05-29T23:20:56.194Z,9.90
2019-05-29T23:23:24.621Z,9.90
2019-05-29T23:25:52.820Z,9.80
2019-05-29T23:28:21.283Z,9.70
2019-05-29T23:30:49.494Z,9.70
2019-05-29T23:33:17.707Z,9.70
2019-05-29T23:35:45.915Z,9.60
2019-05-29T23:38:14.124Z,9.60
2019-05-29T23:40:42.509Z,9.60
2019-05-29T23:43:10.716Z,9.60
2019-05-29T23:45:38.924Z,9.50
2019-05-29T23:48:07.149Z,9.50
2019-05-29T23:50:35.348Z,9.50
2019-05-29T23:53:04.023Z,9.50
2019-05-29T23:55:32.404Z,9.40
2019-05-29T23:58:01.972Z,9.40
